Ana Sayfa
METAR-TAF:

METAR-TAF

Havaalanları :

Pecos, Teksas, Amerika Birleşik Devletleri

Enlem: 31-22-56N, Boylam: 103-30-38W, yükseklik: 796 m

Güncel hava durumu gözlemi

Rapor saat 08:55 UTC de 46 dakika önce yapıldı.
Rüzgar doğu/kuzeydoğudan 8 kt
Sıcaklık 27°C
Nem 58%
Basınç 1012 hPa
Görüş mesafesi: 16.1 km
Açık gökyüzü

METAR: KPEQ 250855Z AUTO 07008KT 10SM CLR 27/18 A2989 RMK AO2 T02650178

Saat: 04:41 (09:41 UTC)

Tahmin

Rapor saat 05:20 UTC de 4 saat ve 21 dakika önce yapıldı.
Ayın 25'si saat 06 UTC'den ayın 26'si saat 06 UTC'ye kadar geçerli Tahmin
Rüzgar doğu/güneydoğudan 11 kt
Görüş mesafesi: 10 km
Açık gökyüzü

TAF: KPEQ 250520Z 2506/2606 11011KT P6SM SKC

4.000'den fazla havaalanı için hava durumu gözlemleri ve tahminleri (METAR ve TAF raporları).

Kullanılabilir istasyonlar harita üzerinde sarı ve kırmızı noktalarla gösterilir.

İstasyonun adını görmek için fareyi noktanın üzerinde gezdirin.

Sonrasında hava gözlem ve tahminlerini görmek için tıklayın.

Haritayı değiştirmek için: yaklaştırmak için siyah artı işaretli yeşil düğmeye ve uzaklaştırmak için de eksi işaretli düğmeye hızla tıklayın; bitişik haritalar için yeşil okları kullanın.


METAR-TAF: